createdAt,value
2023-07-14T00:01:58.828Z,16.90
2023-07-14T00:04:32.765Z,16.90
2023-07-14T00:07:01.630Z,16.90
2023-07-14T00:09:33.104Z,16.90
2023-07-14T00:12:03.085Z,16.80
2023-07-14T00:14:32.482Z,16.70
2023-07-14T00:17:01.384Z,16.60
2023-07-14T00:19:29.992Z,16.50
2023-07-14T00:21:58.644Z,16.50
2023-07-14T00:24:27.688Z,16.40
2023-07-14T00:26:57.950Z,16.40
2023-07-14T00:29:41.453Z,16.30
2023-07-14T00:32:15.180Z,16.30
2023-07-14T00:34:43.747Z,16.20
2023-07-14T00:37:12.696Z,16.10
2023-07-14T00:39:41.242Z,16.10
2023-07-14T00:42:13.916Z,16.10
2023-07-14T00:44:44.698Z,16.00
2023-07-14T00:47:21.572Z,16.00
2023-07-14T00:49:51.765Z,16.00
2023-07-14T00:52:24.982Z,16.00
2023-07-14T00:54:53.769Z,16.00
2023-07-14T00:57:25.456Z,16.00
2023-07-14T01:00:00.194Z,16.00
2023-07-14T01:02:29.674Z,16.10
2023-07-14T01:05:01.088Z,16.10
2023-07-14T01:07:34.028Z,16.20
2023-07-14T01:10:04.193Z,16.20
2023-07-14T01:12:36.230Z,16.30
2023-07-14T01:15:08.916Z,16.30
2023-07-14T01:17:39.069Z,16.20
2023-07-14T01:20:10.693Z,16.20
2023-07-14T01:22:48.616Z,16.20
2023-07-14T01:25:25.418Z,16.20
2023-07-14T01:27:55.055Z,16.20
2023-07-14T01:30:24.252Z,16.10
2023-07-14T01:32:53.371Z,16.10
2023-07-14T01:35:27.741Z,16.00
2023-07-14T01:37:56.479Z,16.00
2023-07-14T01:40:25.067Z,15.90
2023-07-14T01:42:57.779Z,15.90
2023-07-14T01:45:29.281Z,15.80
2023-07-14T01:48:01.641Z,15.80
2023-07-14T01:50:33.750Z,15.70
2023-07-14T01:53:05.516Z,15.70
2023-07-14T01:55:36.707Z,15.70
2023-07-14T01:58:12.225Z,15.80
2023-07-14T02:00:42.625Z,15.80
2023-07-14T02:03:14.892Z,15.90
2023-07-14T02:05:43.268Z,15.90
2023-07-14T02:08:18.970Z,15.80
2023-07-14T02:10:47.347Z,15.80
2023-07-14T02:13:17.142Z,15.80
2023-07-14T02:15:45.878Z,15.80
2023-07-14T02:18:19.441Z,15.80
2023-07-14T02:20:49.354Z,15.80
2023-07-14T02:23:21.896Z,15.80
2023-07-14T02:26:00.377Z,15.70
2023-07-14T02:28:30.033Z,15.60
2023-07-14T02:31:04.434Z,15.60
2023-07-14T02:33:40.109Z,15.70
2023-07-14T02:36:17.887Z,15.70
2023-07-14T02:46:28.016Z,15.70
2023-07-14T02:48:56.365Z,15.70
2023-07-14T02:51:24.570Z,15.70
2023-07-14T02:53:52.761Z,15.80
2023-07-14T02:56:21.657Z,15.80
2023-07-14T02:58:51.251Z,15.80
2023-07-14T03:06:47.445Z,15.80
2023-07-14T03:09:17.562Z,15.70
2023-07-14T03:11:45.789Z,15.70
2023-07-14T03:14:15.094Z,15.70
2023-07-14T03:16:43.475Z,15.70
2023-07-14T03:19:11.685Z,15.70
2023-07-14T03:21:39.972Z,15.70
2023-07-14T03:24:10.003Z,15.70
2023-07-14T03:26:38.383Z,15.60
2023-07-14T03:29:06.615Z,15.60
2023-07-14T03:31:34.779Z,15.60
2023-07-14T03:34:02.993Z,15.60
2023-07-14T03:36:31.199Z,15.60
2023-07-14T03:39:24.604Z,15.60
2023-07-14T03:41:53.075Z,15.60
2023-07-14T03:44:22.059Z,15.50
2023-07-14T03:46:50.296Z,15.50
2023-07-14T03:49:18.948Z,15.50
2023-07-14T03:51:47.402Z,15.50
2023-07-14T03:54:15.585Z,15.50
2023-07-14T03:56:45.660Z,15.50
2023-07-14T03:59:14.413Z,15.60
2023-07-14T04:01:42.792Z,15.60
2023-07-14T04:04:11.040Z,15.60
2023-07-14T04:06:39.227Z,15.60
2023-07-14T04:09:08.461Z,15.70
2023-07-14T04:11:37.008Z,15.70
2023-07-14T04:14:07.959Z,15.70
2023-07-14T04:16:37.644Z,15.80
2023-07-14T04:19:06.316Z,15.90
2023-07-14T04:21:34.798Z,16.00
2023-07-14T04:24:03.349Z,16.10
2023-07-14T04:26:32.154Z,16.20
2023-07-14T04:29:00.476Z,16.30
2023-07-14T04:31:30.504Z,16.40
2023-07-14T04:33:58.692Z,16.50
2023-07-14T04:36:26.971Z,16.40
2023-07-14T04:39:05.007Z,16.50
2023-07-14T04:41:33.857Z,16.50
2023-07-14T04:44:45.301Z,16.60
2023-07-14T04:47:14.910Z,16.60
2023-07-14T04:49:43.042Z,16.60
2023-07-14T04:52:11.242Z,16.60
2023-07-14T04:54:39.410Z,16.50
2023-07-14T04:57:08.627Z,16.60
2023-07-14T04:59:36.754Z,16.60
2023-07-14T05:02:06.401Z,16.70
2023-07-14T05:05:00.114Z,16.80
2023-07-14T05:07:28.684Z,16.80
2023-07-14T05:09:56.850Z,16.90
2023-07-14T05:12:24.974Z,16.90
2023-07-14T05:14:53.345Z,17.00
2023-07-14T05:17:21.591Z,17.10
2023-07-14T05:19:51.151Z,17.20
2023-07-14T05:22:19.327Z,17.30
2023-07-14T05:24:47.518Z,17.50
2023-07-14T05:27:15.650Z,17.60
2023-07-14T05:29:43.880Z,17.80
2023-07-14T05:32:11.975Z,17.90
2023-07-14T05:34:41.176Z,18.00
2023-07-14T05:37:12.085Z,18.00
2023-07-14T05:39:40.678Z,18.00
2023-07-14T05:42:08.978Z,18.10
2023-07-14T05:44:37.502Z,18.20
2023-07-14T05:47:06.448Z,18.30
2023-07-14T05:49:34.845Z,18.40
2023-07-14T05:52:03.129Z,18.60
2023-07-14T05:54:33.013Z,18.80
2023-07-14T05:57:01.192Z,18.90
2023-07-14T05:59:29.300Z,19.10
2023-07-14T06:01:57.594Z,19.20
2023-07-14T06:04:25.879Z,19.40
2023-07-14T06:06:54.135Z,19.50
2023-07-14T06:09:22.239Z,19.60
2023-07-14T06:11:51.712Z,19.70
2023-07-14T06:14:19.840Z,19.70
2023-07-14T06:16:48.064Z,20.40
2023-07-14T06:19:16.280Z,20.80
2023-07-14T06:21:44.572Z,20.80
2023-07-14T06:24:12.695Z,20.40
2023-07-14T06:26:40.764Z,20.10
2023-07-14T06:29:10.310Z,19.90
2023-07-14T06:31:38.377Z,19.90
2023-07-14T06:34:06.655Z,19.90
2023-07-14T06:36:35.190Z,19.80
2023-07-14T06:39:04.902Z,20.10
2023-07-14T06:41:33.062Z,20.60
2023-07-14T06:44:12.073Z,21.60
2023-07-14T06:46:45.518Z,22.90
2023-07-14T06:49:21.738Z,23.80
2023-07-14T06:51:51.858Z,24.10
2023-07-14T06:54:19.984Z,24.50
2023-07-14T06:56:48.621Z,23.90
2023-07-14T06:59:16.857Z,23.20
2023-07-14T07:01:46.475Z,22.70
2023-07-14T07:04:16.352Z,22.60
2023-07-14T07:06:44.559Z,23.20
2023-07-14T07:09:12.721Z,23.50
2023-07-14T07:11:41.505Z,24.80
2023-07-14T07:14:09.711Z,26.10
2023-07-14T07:16:38.162Z,26.80
2023-07-14T07:19:07.849Z,27.50
2023-07-14T07:21:36.347Z,28.00
2023-07-14T07:24:06.561Z,27.70
2023-07-14T07:26:34.780Z,27.70
2023-07-14T07:29:02.860Z,28.00
2023-07-14T07:31:31.118Z,28.00
2023-07-14T07:33:59.379Z,28.00
2023-07-14T07:36:29.699Z,28.50
2023-07-14T07:38:57.844Z,28.00
2023-07-14T07:41:28.258Z,27.70
2023-07-14T07:43:56.893Z,28.30
2023-07-14T07:46:25.180Z,28.60
2023-07-14T07:48:53.999Z,29.30
2023-07-14T07:51:22.199Z,29.60
2023-07-14T07:53:51.808Z,29.50
2023-07-14T07:56:19.976Z,28.50
2023-07-14T07:58:48.171Z,28.80
2023-07-14T08:01:20.308Z,29.40
2023-07-14T08:03:48.556Z,29.10
2023-07-14T08:06:17.305Z,28.30
2023-07-14T08:08:46.760Z,27.70
2023-07-14T08:11:19.827Z,27.40
2023-07-14T08:13:47.946Z,27.10
2023-07-14T08:16:16.463Z,26.90
2023-07-14T08:18:45.202Z,26.40
2023-07-14T08:21:13.405Z,26.70
2023-07-14T08:23:42.104Z,27.40
2023-07-14T08:26:10.869Z,28.30
2023-07-14T08:28:42.653Z,27.90
2023-07-14T08:31:13.741Z,27.10
2023-07-14T08:33:43.985Z,26.90
2023-07-14T08:36:14.348Z,26.60
2023-07-14T08:38:43.102Z,26.50
2023-07-14T08:41:23.080Z,26.30
2023-07-14T08:44:09.501Z,25.90
2023-07-14T08:46:43.253Z,25.50
2023-07-14T08:49:22.009Z,25.40
2023-07-14T08:51:54.963Z,25.50
2023-07-14T08:54:27.727Z,26.40
2023-07-14T08:56:55.886Z,27.40
2023-07-14T08:59:34.780Z,27.60
2023-07-14T09:02:16.577Z,27.40
2023-07-14T09:04:52.537Z,27.10
2023-07-14T09:07:20.748Z,26.50
2023-07-14T09:09:48.844Z,26.20
2023-07-14T09:12:26.112Z,26.10
2023-07-14T09:15:01.861Z,25.90
2023-07-14T09:17:50.882Z,25.80
2023-07-14T09:20:41.098Z,26.00
2023-07-14T09:23:27.256Z,26.20
2023-07-14T09:26:02.918Z,26.10
2023-07-14T09:28:37.867Z,26.20
2023-07-14T09:31:20.964Z,26.70
2023-07-14T09:33:52.362Z,26.70
2023-07-14T09:36:21.295Z,26.90
2023-07-14T09:38:52.554Z,27.20
2023-07-14T09:41:24.709Z,27.60
2023-07-14T09:43:58.345Z,28.30
2023-07-14T09:46:33.925Z,28.90
2023-07-14T09:49:14.345Z,29.30
2023-07-14T09:52:02.623Z,29.00
2023-07-14T09:54:30.896Z,29.10
2023-07-14T09:57:04.005Z,28.80
2023-07-14T09:59:32.232Z,28.80
2023-07-14T10:02:03.987Z,28.40
2023-07-14T10:04:37.053Z,28.10
2023-07-14T10:07:36.177Z,27.90
2023-07-14T10:10:09.281Z,27.90
2023-07-14T10:12:41.488Z,28.10
2023-07-14T10:15:31.887Z,28.50
2023-07-14T10:18:04.358Z,28.90
2023-07-14T10:20:34.387Z,29.20
2023-07-14T10:23:03.294Z,29.00
2023-07-14T10:25:32.623Z,28.90
2023-07-14T10:28:06.410Z,28.90
2023-07-14T10:30:53.830Z,28.60
2023-07-14T10:33:27.573Z,28.50
2023-07-14T10:36:01.835Z,28.20
2023-07-14T10:38:34.830Z,27.90
2023-07-14T10:41:07.280Z,27.80
2023-07-14T10:43:40.947Z,27.90
2023-07-14T10:46:19.439Z,28.50
2023-07-14T10:48:53.664Z,28.10
2023-07-14T10:51:29.951Z,28.40
2023-07-14T10:54:03.295Z,28.50
2023-07-14T10:56:35.958Z,28.00
2023-07-14T10:59:14.254Z,27.70
2023-07-14T11:01:53.324Z,27.80
2023-07-14T11:04:30.463Z,27.40
2023-07-14T11:06:59.371Z,26.80
2023-07-14T11:09:29.456Z,26.70
2023-07-14T11:12:08.661Z,27.00
2023-07-14T11:14:47.008Z,27.10
2023-07-14T11:17:22.892Z,27.20
2023-07-14T11:20:04.070Z,27.20
2023-07-14T11:22:49.598Z,27.20
2023-07-14T11:25:21.811Z,27.10
2023-07-14T11:27:57.170Z,27.20
2023-07-14T11:30:31.372Z,27.30
2023-07-14T11:33:07.752Z,27.00
2023-07-14T11:35:41.162Z,26.80
2023-07-14T11:38:21.996Z,26.60
2023-07-14T11:40:53.314Z,26.70
2023-07-14T11:43:23.700Z,26.60
2023-07-14T11:45:59.445Z,26.60
2023-07-14T11:48:36.252Z,26.70
2023-07-14T11:51:09.181Z,26.50
2023-07-14T11:53:39.641Z,26.50
2023-07-14T11:56:24.722Z,26.50
2023-07-14T11:59:06.816Z,26.40
2023-07-14T12:01:44.724Z,26.10
2023-07-14T12:04:31.874Z,26.10
2023-07-14T12:07:20.061Z,26.10
2023-07-14T12:10:03.272Z,26.40
2023-07-14T12:12:34.313Z,26.60
2023-07-14T12:15:03.983Z,26.60
2023-07-14T12:17:49.836Z,26.80
2023-07-14T12:20:44.797Z,27.30
2023-07-14T12:23:23.424Z,27.50
2023-07-14T12:25:54.244Z,27.60
2023-07-14T12:28:28.077Z,27.50
2023-07-14T12:30:56.347Z,27.50
2023-07-14T12:33:26.838Z,27.50
2023-07-14T12:35:54.793Z,27.80
2023-07-14T12:38:26.306Z,28.10
2023-07-14T12:40:57.088Z,28.50
2023-07-14T12:43:34.825Z,28.40
2023-07-14T12:46:05.170Z,28.50
2023-07-14T12:48:35.152Z,28.50
2023-07-14T12:51:15.788Z,28.10
2023-07-14T12:53:50.708Z,27.70
2023-07-14T12:56:18.708Z,27.40
2023-07-14T12:58:47.207Z,27.30
2023-07-14T13:01:19.937Z,27.20
2023-07-14T13:03:48.434Z,27.40
2023-07-14T13:06:18.990Z,27.50
2023-07-14T13:08:50.673Z,27.50
2023-07-14T13:11:22.612Z,27.50
2023-07-14T13:13:54.719Z,27.70
2023-07-14T13:16:29.212Z,27.90
2023-07-14T13:18:59.466Z,28.20
2023-07-14T13:21:38.519Z,28.30
2023-07-14T13:24:16.602Z,28.20
2023-07-14T13:26:51.171Z,28.30
2023-07-14T13:29:23.825Z,28.20
2023-07-14T13:31:56.384Z,28.20
2023-07-14T13:34:26.818Z,28.10
2023-07-14T13:36:55.807Z,28.20
2023-07-14T13:39:30.450Z,28.10
2023-07-14T13:42:00.825Z,28.10
2023-07-14T13:44:36.354Z,28.00
2023-07-14T13:47:16.764Z,28.00
2023-07-14T13:49:47.850Z,27.80
2023-07-14T13:52:17.774Z,27.60
2023-07-14T13:54:49.844Z,27.60
2023-07-14T13:57:17.846Z,27.50
2023-07-14T13:59:47.007Z,27.30
2023-07-14T14:02:29.254Z,27.30
2023-07-14T14:04:57.655Z,27.30
2023-07-14T14:07:25.823Z,27.30
2023-07-14T14:09:55.221Z,27.50
2023-07-14T14:12:23.912Z,27.60
2023-07-14T14:14:52.095Z,27.70
2023-07-14T14:17:34.797Z,27.90
2023-07-14T14:20:03.604Z,27.80
2023-07-14T14:22:33.047Z,27.50
2023-07-14T14:25:02.668Z,27.40
2023-07-14T14:27:30.821Z,27.60
2023-07-14T14:29:59.012Z,27.90
2023-07-14T14:32:27.345Z,28.10
2023-07-14T14:34:59.785Z,28.30
2023-07-14T14:37:27.798Z,28.70
2023-07-14T14:39:55.999Z,28.80
2023-07-14T14:42:25.401Z,28.60
2023-07-14T14:44:53.531Z,28.40
2023-07-14T14:47:21.606Z,28.20
2023-07-14T14:49:49.686Z,27.90
2023-07-14T14:52:18.946Z,27.70
2023-07-14T14:54:47.185Z,27.60
2023-07-14T14:57:17.809Z,27.50
2023-07-14T14:59:47.134Z,27.40
2023-07-14T15:02:18.647Z,27.30
2023-07-14T15:04:46.785Z,27.40
2023-07-14T15:07:15.849Z,27.50
2023-07-14T15:09:43.975Z,27.40
2023-07-14T15:12:16.688Z,27.40
2023-07-14T15:14:49.792Z,27.40
2023-07-14T15:17:25.397Z,27.60
2023-07-14T15:19:54.261Z,27.80
2023-07-14T15:22:24.603Z,27.80
2023-07-14T15:24:52.832Z,27.60
2023-07-14T15:27:27.376Z,27.30
2023-07-14T15:30:01.553Z,27.20
2023-07-14T15:32:29.822Z,27.10
2023-07-14T15:34:58.040Z,27.00
2023-07-14T15:37:26.053Z,26.90
2023-07-14T15:39:54.916Z,26.70
2023-07-14T15:42:22.983Z,26.60
2023-07-14T15:44:51.068Z,26.60
2023-07-14T15:47:21.959Z,26.60
2023-07-14T15:49:50.461Z,26.70
2023-07-14T15:52:20.521Z,26.70
2023-07-14T15:54:48.752Z,26.60
2023-07-14T15:57:18.558Z,26.40
2023-07-14T15:59:46.533Z,26.30
2023-07-14T16:02:16.207Z,26.30
2023-07-14T16:04:45.951Z,26.40
2023-07-14T16:07:15.929Z,26.40
2023-07-14T16:09:44.953Z,26.50
2023-07-14T16:12:19.496Z,26.70
2023-07-14T16:14:47.603Z,26.40
2023-07-14T16:17:16.123Z,26.20
2023-07-14T16:19:45.590Z,26.10
2023-07-14T16:22:17.733Z,26.00
2023-07-14T16:24:46.869Z,26.10
2023-07-14T16:27:22.098Z,26.00
2023-07-14T16:29:50.345Z,26.10
2023-07-14T16:32:19.045Z,26.10
2023-07-14T16:34:49.142Z,26.20
2023-07-14T16:37:19.520Z,26.30
2023-07-14T16:39:49.173Z,26.10
2023-07-14T16:42:19.523Z,26.10
2023-07-14T16:44:47.799Z,26.00
2023-07-14T16:47:16.002Z,26.00
2023-07-14T16:49:44.036Z,26.00
2023-07-14T16:52:24.915Z,25.90
2023-07-14T16:54:53.639Z,25.90
2023-07-14T16:57:28.000Z,25.70
2023-07-14T16:59:56.714Z,25.50
2023-07-14T17:02:27.065Z,25.60
2023-07-14T17:04:55.372Z,25.70
2023-07-14T17:07:24.891Z,25.70
2023-07-14T17:09:52.930Z,25.80
2023-07-14T17:12:20.989Z,25.80
2023-07-14T17:14:49.632Z,25.90
2023-07-14T17:17:17.642Z,26.00
2023-07-14T17:19:45.593Z,26.00
2023-07-14T17:22:14.989Z,26.00
2023-07-14T17:24:48.640Z,25.90
2023-07-14T17:27:17.775Z,25.80
2023-07-14T17:29:50.294Z,25.60
2023-07-14T17:32:19.942Z,25.50
2023-07-14T17:34:47.957Z,25.50
2023-07-14T17:37:21.817Z,25.40
2023-07-14T17:39:52.793Z,25.40
2023-07-14T17:42:24.255Z,25.50
2023-07-14T17:44:56.077Z,25.40
2023-07-14T17:47:24.979Z,25.40
2023-07-14T17:49:53.211Z,25.40
2023-07-14T17:52:21.303Z,25.40
2023-07-14T17:54:50.669Z,25.40
2023-07-14T17:57:23.261Z,25.40
2023-07-14T17:59:53.167Z,25.40
2023-07-14T18:02:30.668Z,25.50
2023-07-14T18:04:58.851Z,25.40
2023-07-14T18:07:27.245Z,25.20
2023-07-14T18:09:56.749Z,25.10
2023-07-14T18:12:33.964Z,25.00
2023-07-14T18:15:02.141Z,24.90
2023-07-14T18:17:30.904Z,25.00
2023-07-14T18:19:59.172Z,24.90
2023-07-14T18:22:29.265Z,24.80
2023-07-14T18:25:01.109Z,24.90
2023-07-14T18:27:31.083Z,24.90
2023-07-14T18:29:59.212Z,24.70
2023-07-14T18:32:27.224Z,24.70
2023-07-14T18:34:55.282Z,24.60
2023-07-14T18:37:23.330Z,24.60
2023-07-14T18:39:52.322Z,24.50
2023-07-14T18:42:26.369Z,24.40
2023-07-14T18:44:55.040Z,24.30
2023-07-14T18:47:23.376Z,24.30
2023-07-14T18:49:51.782Z,24.30
2023-07-14T18:52:19.821Z,24.20
2023-07-14T18:54:47.896Z,24.20
2023-07-14T18:57:19.963Z,24.10
2023-07-14T18:59:50.290Z,24.10
2023-07-14T19:02:31.328Z,24.10
2023-07-14T19:05:01.206Z,24.00
2023-07-14T19:07:33.195Z,24.10
2023-07-14T19:10:01.583Z,24.10
2023-07-14T19:12:29.654Z,24.10
2023-07-14T19:14:59.102Z,24.10
2023-07-14T19:17:30.032Z,24.00
2023-07-14T19:20:00.864Z,23.90
2023-07-14T19:22:30.861Z,23.80
2023-07-14T19:24:59.069Z,23.70
2023-07-14T19:27:27.224Z,23.60
2023-07-14T19:29:56.667Z,23.60
2023-07-14T19:32:31.022Z,23.60
2023-07-14T19:34:59.672Z,23.60
2023-07-14T19:37:28.070Z,23.60
2023-07-14T19:39:56.470Z,23.50
2023-07-14T19:42:24.621Z,23.50
2023-07-14T19:44:53.166Z,23.60
2023-07-14T19:47:22.420Z,23.50
2023-07-14T19:49:53.170Z,23.50
2023-07-14T19:52:21.525Z,23.60
2023-07-14T19:54:51.097Z,23.50
2023-07-14T19:57:19.559Z,23.50
2023-07-14T19:59:47.667Z,23.40
2023-07-14T20:02:27.809Z,23.40
2023-07-14T20:04:57.628Z,23.40
2023-07-14T20:07:25.822Z,23.40
2023-07-14T20:09:53.819Z,23.30
2023-07-14T20:12:21.893Z,23.20
2023-07-14T20:14:49.964Z,23.20
2023-07-14T20:17:18.168Z,23.10
2023-07-14T20:19:46.507Z,23.10
2023-07-14T20:22:22.059Z,23.10
2023-07-14T20:24:50.884Z,22.90
2023-07-14T20:27:21.001Z,22.90
2023-07-14T20:29:50.175Z,22.90
2023-07-14T20:32:21.061Z,22.90
2023-07-14T20:34:49.258Z,22.90
2023-07-14T20:37:19.792Z,22.90
2023-07-14T20:39:49.058Z,23.10
2023-07-14T20:42:19.257Z,23.20
2023-07-14T20:44:47.637Z,23.20
2023-07-14T20:47:17.977Z,23.10
2023-07-14T20:49:48.033Z,23.10
2023-07-14T20:52:21.280Z,23.00
2023-07-14T20:55:38.665Z,23.00
2023-07-14T20:58:11.756Z,23.00
2023-07-14T21:00:39.931Z,23.00
2023-07-14T21:03:14.249Z,23.10
2023-07-14T21:05:42.513Z,23.10
2023-07-14T21:08:17.827Z,23.10
2023-07-14T21:10:46.607Z,23.10
2023-07-14T21:13:19.876Z,23.20
2023-07-14T21:15:48.034Z,23.10
2023-07-14T21:18:19.676Z,23.10
2023-07-14T21:20:49.235Z,23.00
2023-07-14T21:23:29.705Z,23.10
2023-07-14T21:26:00.584Z,23.00
2023-07-14T21:28:29.778Z,23.00
2023-07-14T21:31:01.562Z,23.10
2023-07-14T21:33:33.295Z,23.10
2023-07-14T21:36:01.813Z,23.20
2023-07-14T21:38:33.425Z,23.30
2023-07-14T21:41:04.226Z,23.30
2023-07-14T21:43:39.716Z,23.30
2023-07-14T21:46:07.853Z,23.40
2023-07-14T21:48:35.908Z,23.40
2023-07-14T21:51:07.024Z,23.50
2023-07-14T21:53:38.088Z,23.50
2023-07-14T21:56:06.462Z,23.50
2023-07-14T21:58:35.158Z,23.60
2023-07-14T22:01:19.505Z,23.60
2023-07-14T22:03:48.484Z,23.50
2023-07-14T22:06:17.260Z,23.40
2023-07-14T22:08:46.677Z,23.40
2023-07-14T22:11:17.448Z,23.30
2023-07-14T22:13:46.194Z,23.40
2023-07-14T22:16:16.174Z,23.30
2023-07-14T22:18:46.417Z,23.30
2023-07-14T22:21:17.578Z,23.40
2023-07-14T22:23:47.420Z,23.40
2023-07-14T22:26:18.233Z,23.40
2023-07-14T22:28:48.713Z,23.50
2023-07-14T22:31:20.456Z,23.50
2023-07-14T22:33:49.712Z,23.50
2023-07-14T22:36:19.396Z,23.60
2023-07-14T22:38:49.211Z,23.50
2023-07-14T22:41:22.093Z,23.50
2023-07-14T22:43:53.739Z,23.60
2023-07-14T22:46:23.763Z,23.60
2023-07-14T22:48:52.498Z,23.60
2023-07-14T22:51:26.577Z,23.50
2023-07-14T22:53:56.584Z,23.60
2023-07-14T22:56:25.143Z,23.50
2023-07-14T22:58:53.793Z,23.50
2023-07-14T23:01:27.708Z,23.50
2023-07-14T23:03:56.504Z,23.40
2023-07-14T23:06:25.688Z,23.40
2023-07-14T23:08:56.597Z,23.40
2023-07-14T23:11:28.372Z,23.40
2023-07-14T23:13:56.503Z,23.30
2023-07-14T23:16:25.632Z,23.30
2023-07-14T23:18:53.833Z,23.20
2023-07-14T23:21:25.281Z,23.20
2023-07-14T23:23:55.609Z,23.00
2023-07-14T23:26:27.514Z,22.90
2023-07-14T23:28:55.996Z,22.90
2023-07-14T23:31:27.740Z,22.90
2023-07-14T23:33:56.873Z,22.80
2023-07-14T23:36:27.023Z,22.80
2023-07-14T23:38:55.367Z,22.70
2023-07-14T23:41:26.777Z,22.80
2023-07-14T23:43:55.744Z,22.70
2023-07-14T23:46:25.587Z,22.70
2023-07-14T23:48:54.717Z,22.70
2023-07-14T23:51:27.689Z,22.70
2023-07-14T23:53:56.530Z,22.70
2023-07-14T23:56:26.381Z,22.70
2023-07-14T23:58:54.694Z,22.70
